createdAt,value
2022-12-08T00:01:28.585Z,10.57
2022-12-08T00:03:56.475Z,10.40
2022-12-08T00:06:50.075Z,10.57
2022-12-08T00:09:23.488Z,10.20
2022-12-08T00:12:26.675Z,9.57
2022-12-08T00:14:54.551Z,9.98
2022-12-08T00:17:21.213Z,10.27
2022-12-08T00:19:47.761Z,9.98
2022-12-08T00:22:15.169Z,10.15
2022-12-08T00:24:44.906Z,10.52
2022-12-08T00:27:14.823Z,9.80
2022-12-08T00:29:44.061Z,9.32
2022-12-08T00:32:10.751Z,10.15
2022-12-08T00:34:37.363Z,9.13
2022-12-08T00:37:03.929Z,9.65
2022-12-08T00:39:30.618Z,8.80
2022-12-08T00:42:12.318Z,9.07
2022-12-08T00:44:39.916Z,9.45
2022-12-08T00:47:06.538Z,7.72
2022-12-08T00:49:33.219Z,8.57
2022-12-08T00:51:59.872Z,8.38
2022-12-08T00:54:26.873Z,7.82
2022-12-08T00:56:53.551Z,7.80
2022-12-08T00:59:20.017Z,7.75
2022-12-08T01:01:47.689Z,7.30
2022-12-08T01:04:16.719Z,7.53
2022-12-08T01:06:44.403Z,7.53
2022-12-08T01:09:12.468Z,7.60
2022-12-08T01:11:39.188Z,7.47
2022-12-08T01:14:05.667Z,6.80
2022-12-08T01:16:35.235Z,6.63
2022-12-08T01:19:02.123Z,6.70
2022-12-08T01:21:29.345Z,6.82
2022-12-08T01:23:57.927Z,7.28
2022-12-08T01:26:24.500Z,6.85
2022-12-08T01:28:51.075Z,6.72
2022-12-08T01:31:20.584Z,6.78
2022-12-08T01:33:48.082Z,6.80
2022-12-08T01:36:26.714Z,6.85
2022-12-08T01:38:54.971Z,6.35
2022-12-08T01:41:24.119Z,6.43
2022-12-08T01:44:02.419Z,6.07
2022-12-08T01:46:31.913Z,5.90
2022-12-08T01:49:15.163Z,5.95
2022-12-08T01:52:14.230Z,6.30
2022-12-08T01:54:49.275Z,5.80
2022-12-08T01:57:25.498Z,5.47
2022-12-08T02:00:00.637Z,5.40
2022-12-08T02:02:34.281Z,5.10
2022-12-08T02:05:02.239Z,5.82
2022-12-08T02:07:29.389Z,5.05
2022-12-08T02:09:56.393Z,4.82
2022-12-08T02:12:23.001Z,5.40
2022-12-08T02:14:49.683Z,5.70
2022-12-08T02:17:38.956Z,4.82
2022-12-08T02:20:16.887Z,5.47
2022-12-08T02:23:07.929Z,5.43
2022-12-08T02:25:55.676Z,5.35
2022-12-08T02:28:48.203Z,4.90
2022-12-08T02:31:51.768Z,5.35
2022-12-08T02:34:34.442Z,5.43
2022-12-08T02:37:19.403Z,5.05
2022-12-08T02:40:12.418Z,5.03
2022-12-08T02:42:58.649Z,5.13
2022-12-08T02:45:33.393Z,4.90
2022-12-08T02:48:00.485Z,4.53
2022-12-08T02:50:28.615Z,4.75
2022-12-08T02:52:55.261Z,5.43
2022-12-08T02:55:47.930Z,4.57
2022-12-08T02:58:35.305Z,5.30
2022-12-08T03:01:24.995Z,5.03
2022-12-08T03:04:13.401Z,5.25
2022-12-08T03:06:55.349Z,5.28
2022-12-08T03:09:29.745Z,5.00
2022-12-08T03:12:13.908Z,4.80
2022-12-08T03:14:45.544Z,5.35
2022-12-08T03:17:14.428Z,5.22
2022-12-08T03:19:43.016Z,5.25
2022-12-08T03:22:12.129Z,5.35
2022-12-08T03:24:41.908Z,4.50
2022-12-08T03:27:16.645Z,5.40
2022-12-08T03:29:43.610Z,4.97
2022-12-08T03:32:39.346Z,4.68
2022-12-08T03:35:11.974Z,5.40
2022-12-08T03:37:39.956Z,5.35
2022-12-08T03:40:09.890Z,5.82
2022-12-08T03:42:36.369Z,4.93
2022-12-08T03:45:04.077Z,5.47
2022-12-08T03:47:30.806Z,5.05
2022-12-08T03:49:57.319Z,5.65
2022-12-08T03:52:23.951Z,5.53
2022-12-08T03:54:50.454Z,4.93
2022-12-08T03:57:17.308Z,5.13
2022-12-08T03:59:43.813Z,5.38
2022-12-08T04:02:10.402Z,5.63
2022-12-08T04:04:36.917Z,5.30
2022-12-08T04:07:03.432Z,5.53
2022-12-08T04:09:30.054Z,5.43
2022-12-08T04:11:56.541Z,5.47
2022-12-08T04:14:23.051Z,6.13
2022-12-08T04:16:49.546Z,6.20
2022-12-08T04:19:16.025Z,6.35
2022-12-08T04:21:42.569Z,6.03
2022-12-08T04:24:09.403Z,6.47
2022-12-08T04:26:35.916Z,6.35
2022-12-08T04:29:02.460Z,5.72
2022-12-08T04:31:29.065Z,5.75
2022-12-08T04:33:55.745Z,5.93
2022-12-08T04:36:22.229Z,6.55
2022-12-08T04:38:48.795Z,5.70
2022-12-08T04:41:15.333Z,5.97
2022-12-08T04:43:44.273Z,5.97
2022-12-08T04:46:11.340Z,6.13
2022-12-08T04:48:38.490Z,6.07
2022-12-08T04:51:05.180Z,5.68
2022-12-08T04:53:32.318Z,5.78
2022-12-08T04:55:59.110Z,5.95
2022-12-08T04:58:25.657Z,5.95
2022-12-08T05:00:52.280Z,5.78
2022-12-08T05:03:22.546Z,5.75
2022-12-08T05:05:53.309Z,5.30
2022-12-08T05:08:19.973Z,5.60
2022-12-08T05:10:46.597Z,5.53
2022-12-08T05:13:13.061Z,5.50
2022-12-08T05:15:39.573Z,5.10
2022-12-08T05:18:07.223Z,5.32
2022-12-08T05:20:34.311Z,5.18
2022-12-08T05:23:00.883Z,5.55
2022-12-08T05:25:27.877Z,5.00
2022-12-08T05:28:06.245Z,5.32
2022-12-08T05:30:38.130Z,4.97
2022-12-08T05:33:04.764Z,5.30
2022-12-08T05:35:31.353Z,5.18
2022-12-08T05:37:57.878Z,5.20
2022-12-08T05:40:24.363Z,5.18
2022-12-08T05:42:50.908Z,4.95
2022-12-08T05:45:17.445Z,5.10
2022-12-08T05:47:44.051Z,4.47
2022-12-08T05:50:11.076Z,5.00
2022-12-08T05:52:37.614Z,4.65
2022-12-08T05:55:04.322Z,4.30
2022-12-08T05:57:30.809Z,4.28
2022-12-08T05:59:59.486Z,4.03
2022-12-08T06:02:26.816Z,4.65
2022-12-08T06:04:53.552Z,5.07
2022-12-08T06:07:20.351Z,4.10
2022-12-08T06:09:47.062Z,4.30
2022-12-08T06:12:13.750Z,3.72
2022-12-08T06:14:40.630Z,4.18
2022-12-08T06:17:07.297Z,4.00
2022-12-08T06:19:33.828Z,4.03
2022-12-08T06:22:00.508Z,4.40
2022-12-08T06:24:27.451Z,4.03
2022-12-08T06:26:53.950Z,4.05
2022-12-08T06:29:20.551Z,4.20
2022-12-08T06:31:47.141Z,3.53
2022-12-08T06:34:13.917Z,3.75
2022-12-08T06:36:40.429Z,4.05
2022-12-08T06:39:06.943Z,4.45
2022-12-08T06:41:53.537Z,4.07
2022-12-08T06:44:20.160Z,4.22
2022-12-08T06:46:46.721Z,4.50
2022-12-08T06:49:13.236Z,3.92
2022-12-08T06:51:39.749Z,4.07
2022-12-08T06:54:06.295Z,4.13
2022-12-08T06:56:33.125Z,4.20
2022-12-08T06:58:59.625Z,3.95
2022-12-08T07:01:26.248Z,3.85
2022-12-08T07:03:52.796Z,3.88
2022-12-08T07:06:22.844Z,3.65
2022-12-08T07:08:49.793Z,4.10
2022-12-08T07:11:21.451Z,3.63
2022-12-08T07:13:49.643Z,3.53
2022-12-08T07:16:16.339Z,4.05
2022-12-08T07:18:44.069Z,4.18
2022-12-08T07:21:14.858Z,4.03
2022-12-08T07:23:42.954Z,4.00
2022-12-08T07:26:11.846Z,4.68
2022-12-08T07:28:41.302Z,4.38
2022-12-08T07:31:16.314Z,4.82
2022-12-08T07:33:43.267Z,4.97
2022-12-08T07:36:10.121Z,4.72
2022-12-08T07:38:36.645Z,5.45
2022-12-08T07:41:03.256Z,5.13
2022-12-08T07:43:29.799Z,5.65
2022-12-08T07:45:56.422Z,5.97
2022-12-08T07:48:22.958Z,5.65
2022-12-08T07:50:49.570Z,6.10
2022-12-08T07:53:16.125Z,6.00
2022-12-08T07:55:43.691Z,6.00
2022-12-08T07:58:10.796Z,5.75
2022-12-08T08:00:37.476Z,6.10
2022-12-08T08:03:04.204Z,5.95
2022-12-08T08:05:30.750Z,6.00
2022-12-08T08:07:57.342Z,5.65
2022-12-08T08:10:23.979Z,6.60
2022-12-08T08:12:50.564Z,6.70
2022-12-08T08:15:17.889Z,7.75
2022-12-08T08:17:44.546Z,7.75
2022-12-08T08:20:11.609Z,7.35
2022-12-08T08:22:38.094Z,6.68
2022-12-08T08:25:05.648Z,7.20
2022-12-08T08:27:32.197Z,7.07
2022-12-08T08:29:58.822Z,7.15
2022-12-08T08:32:25.445Z,7.07
2022-12-08T08:34:52.134Z,7.00
2022-12-08T08:37:18.867Z,7.13
2022-12-08T08:39:45.400Z,6.90
2022-12-08T08:42:11.943Z,7.13
2022-12-08T08:44:39.031Z,7.40
2022-12-08T08:47:05.836Z,7.20
2022-12-08T08:49:32.493Z,7.13
2022-12-08T08:51:59.199Z,7.65
2022-12-08T08:54:25.779Z,7.10
2022-12-08T08:56:52.710Z,7.47
2022-12-08T08:59:19.317Z,8.30
2022-12-08T09:01:45.964Z,7.32
2022-12-08T09:04:12.676Z,7.75
2022-12-08T09:06:39.357Z,7.38
2022-12-08T09:09:06.333Z,7.75
2022-12-08T09:11:33.186Z,7.07
2022-12-08T09:13:59.733Z,7.40
2022-12-08T09:16:26.486Z,7.90
2022-12-08T09:18:53.116Z,8.05
2022-12-08T09:21:23.248Z,8.25
2022-12-08T09:23:55.069Z,8.73
2022-12-08T09:26:22.502Z,8.25
2022-12-08T09:28:50.622Z,8.68
2022-12-08T09:31:18.972Z,7.93
2022-12-08T09:33:47.471Z,7.85
2022-12-08T09:36:14.596Z,8.35
2022-12-08T09:38:41.206Z,8.25
2022-12-08T09:41:17.316Z,7.72
2022-12-08T09:43:58.448Z,8.38
2022-12-08T09:46:28.684Z,9.38
2022-12-08T09:48:58.995Z,9.20
2022-12-08T09:51:28.989Z,8.73
2022-12-08T09:53:59.982Z,8.80
2022-12-08T09:56:30.673Z,9.30
2022-12-08T09:59:02.302Z,9.23
2022-12-08T10:01:31.690Z,8.95
2022-12-08T10:03:59.111Z,8.50
2022-12-08T10:06:47.098Z,9.73
2022-12-08T10:09:31.876Z,8.93
2022-12-08T10:12:19.735Z,8.68
2022-12-08T10:15:10.612Z,9.85
2022-12-08T10:17:48.688Z,9.15
2022-12-08T10:20:18.112Z,10.02
2022-12-08T10:22:51.978Z,10.13
2022-12-08T10:25:28.517Z,10.25
2022-12-08T10:27:55.185Z,9.02
2022-12-08T10:30:22.314Z,9.25
2022-12-08T10:32:50.972Z,8.85
2022-12-08T10:35:19.397Z,8.77
2022-12-08T10:38:01.669Z,7.43
2022-12-08T10:40:39.123Z,6.80
2022-12-08T10:43:17.849Z,6.57
2022-12-08T10:45:44.992Z,6.65
2022-12-08T10:48:16.958Z,6.38
2022-12-08T10:50:53.981Z,6.20
2022-12-08T10:53:23.992Z,6.00
2022-12-08T10:56:02.631Z,5.80
2022-12-08T10:59:00.405Z,6.80
2022-12-08T11:01:34.273Z,6.70
2022-12-08T11:06:28.574Z,5.30
2022-12-08T11:08:56.312Z,5.43
2022-12-08T11:11:38.920Z,4.93
2022-12-08T11:14:14.093Z,5.20
2022-12-08T11:16:43.052Z,4.47
2022-12-08T11:19:15.949Z,4.85
2022-12-08T11:21:43.812Z,4.55
2022-12-08T11:24:37.616Z,4.30
2022-12-08T11:27:06.378Z,3.90
2022-12-08T11:29:35.257Z,3.72
2022-12-08T11:32:11.878Z,3.55
2022-12-08T11:34:46.266Z,3.40
2022-12-08T11:37:35.245Z,3.47
2022-12-08T11:40:16.319Z,3.13
2022-12-08T11:43:00.959Z,2.92
2022-12-08T11:45:32.059Z,2.92
2022-12-08T11:48:09.768Z,3.33
2022-12-08T11:50:49.376Z,2.90
2022-12-08T11:53:24.914Z,2.90
2022-12-08T11:55:57.549Z,3.22
2022-12-08T11:58:34.852Z,2.80
2022-12-08T12:01:01.690Z,2.80
2022-12-08T12:03:35.792Z,2.78
2022-12-08T12:06:54.365Z,2.30
2022-12-08T12:09:25.040Z,2.47
2022-12-08T12:12:25.656Z,2.88
2022-12-08T12:15:16.266Z,2.40
2022-12-08T12:18:08.070Z,2.17
2022-12-08T12:20:46.773Z,2.28
2022-12-08T12:23:24.086Z,2.05
2022-12-08T12:26:02.417Z,2.15
2022-12-08T12:29:02.954Z,2.10
2022-12-08T12:31:33.542Z,1.80
2022-12-08T12:34:25.558Z,1.95
2022-12-08T12:36:57.320Z,1.85
2022-12-08T12:39:29.228Z,2.10
2022-12-08T12:42:01.374Z,1.65
2022-12-08T12:44:27.796Z,1.65
2022-12-08T12:47:00.753Z,1.70
2022-12-08T12:49:39.570Z,1.70
2022-12-08T12:52:15.390Z,1.60
2022-12-08T12:55:11.158Z,1.52
2022-12-08T12:57:40.099Z,1.60
2022-12-08T13:00:09.898Z,2.00
2022-12-08T13:02:36.745Z,1.80
2022-12-08T13:05:10.824Z,1.83
2022-12-08T13:10:16.017Z,1.83
2022-12-08T13:12:45.194Z,1.55
2022-12-08T13:15:19.801Z,1.50
2022-12-08T13:17:49.097Z,1.75
2022-12-08T13:20:21.825Z,1.50
2022-12-08T13:22:50.372Z,1.70
2022-12-08T13:25:38.715Z,1.60
2022-12-08T13:28:24.874Z,1.70
2022-12-08T13:30:59.496Z,1.55
2022-12-08T13:33:40.979Z,1.67
2022-12-08T13:36:22.271Z,1.50
2022-12-08T13:38:55.862Z,1.63
2022-12-08T13:41:29.048Z,1.50
2022-12-08T13:45:03.581Z,1.90
2022-12-08T13:47:24.617Z,1.75
2022-12-08T13:51:10.559Z,1.90
2022-12-08T13:58:28.461Z,1.77
2022-12-08T14:01:14.787Z,2.13
2022-12-08T14:04:37.648Z,1.98
2022-12-08T14:07:02.571Z,1.80
2022-12-08T14:09:34.944Z,1.80
2022-12-08T14:12:21.862Z,1.90
2022-12-08T14:15:06.747Z,1.98
2022-12-08T14:17:33.559Z,1.98
2022-12-08T14:20:01.294Z,2.20
2022-12-08T14:22:38.888Z,2.08
2022-12-08T14:25:08.018Z,2.65
2022-12-08T14:27:36.979Z,2.20
2022-12-08T14:30:15.853Z,2.40
2022-12-08T14:32:58.586Z,2.35
2022-12-08T14:35:26.964Z,2.40
2022-12-08T14:38:12.865Z,2.78
2022-12-08T14:40:44.353Z,2.40
2022-12-08T14:43:10.753Z,2.30
2022-12-08T14:45:40.211Z,2.30
2022-12-08T14:48:25.819Z,2.25
2022-12-08T14:50:57.228Z,2.42
2022-12-08T14:53:24.825Z,2.30
2022-12-08T14:55:51.926Z,2.17
2022-12-08T14:58:24.002Z,2.15
2022-12-08T15:00:54.401Z,2.50
2022-12-08T15:03:23.232Z,2.47
2022-12-08T15:05:59.657Z,2.47
2022-12-08T15:08:26.457Z,2.60
2022-12-08T15:11:12.496Z,2.80
2022-12-08T15:13:46.781Z,2.70
2022-12-08T15:16:37.820Z,2.63
2022-12-08T15:19:28.295Z,2.88
2022-12-08T15:21:58.142Z,3.22
2022-12-08T15:24:28.268Z,3.58
2022-12-08T15:26:55.077Z,3.45
2022-12-08T15:29:29.601Z,3.50
2022-12-08T15:31:59.677Z,3.95
2022-12-08T15:34:26.142Z,3.67
2022-12-08T15:36:54.333Z,3.83
2022-12-08T15:39:32.960Z,4.25
2022-12-08T15:42:00.168Z,4.55
2022-12-08T15:44:27.031Z,4.60
2022-12-08T15:46:53.876Z,4.10
2022-12-08T15:49:23.171Z,3.58
2022-12-08T15:51:53.573Z,3.42
2022-12-08T15:54:23.052Z,3.92
2022-12-08T15:57:17.860Z,3.60
2022-12-08T15:59:38.910Z,3.50
2022-12-08T16:02:05.367Z,2.97
2022-12-08T16:07:23.338Z,6.35
2022-12-08T16:09:49.985Z,7.57
2022-12-08T16:13:48.074Z,6.90
2022-12-08T16:15:51.802Z,5.25
2022-12-08T16:18:27.450Z,5.65
2022-12-08T16:23:43.565Z,5.05
2022-12-08T16:27:01.205Z,4.80
2022-12-08T16:29:06.760Z,4.68
2022-12-08T16:31:33.793Z,5.20
2022-12-08T16:34:00.487Z,4.70
2022-12-08T16:36:26.952Z,5.45
2022-12-08T16:38:53.403Z,4.70
2022-12-08T16:41:38.772Z,5.57
2022-12-08T16:44:06.225Z,5.63
2022-12-08T16:46:33.622Z,5.30
2022-12-08T16:49:00.170Z,5.78
2022-12-08T16:51:27.553Z,5.82
2022-12-08T16:53:55.389Z,5.97
2022-12-08T16:56:27.508Z,5.75
2022-12-08T16:58:57.067Z,6.82
2022-12-08T17:01:23.792Z,7.30
2022-12-08T17:04:14.420Z,7.00
2022-12-08T17:06:36.737Z,7.22
2022-12-08T17:09:03.305Z,7.93
2022-12-08T17:11:37.432Z,7.82
2022-12-08T17:14:05.713Z,8.00
2022-12-08T17:16:32.230Z,7.13
2022-12-08T17:18:58.690Z,7.57
2022-12-08T17:21:25.134Z,8.25
2022-12-08T17:23:51.635Z,7.80
2022-12-08T17:26:18.075Z,7.88
2022-12-08T17:29:00.050Z,8.35
2022-12-08T17:31:29.903Z,8.52
2022-12-08T17:34:05.469Z,9.00
2022-12-08T17:36:32.038Z,8.73
2022-12-08T17:39:00.366Z,8.75
2022-12-08T17:41:27.397Z,9.35
2022-12-08T17:43:54.625Z,10.18
2022-12-08T17:46:22.254Z,10.40
2022-12-08T17:48:49.237Z,11.25
2022-12-08T17:51:15.834Z,11.38
2022-12-08T17:53:42.375Z,13.73
2022-12-08T17:56:18.324Z,12.18
2022-12-08T17:58:45.626Z,11.90
2022-12-08T18:01:13.945Z,12.23
2022-12-08T18:03:40.354Z,12.38
2022-12-08T18:06:12.282Z,11.85
2022-12-08T18:08:39.810Z,13.38
2022-12-08T18:11:12.165Z,13.73
2022-12-08T18:13:38.602Z,12.77
2022-12-08T18:16:05.097Z,12.95
2022-12-08T18:18:31.547Z,13.95
2022-12-08T18:20:58.200Z,12.63
2022-12-08T18:23:24.656Z,13.02
2022-12-08T18:25:51.203Z,18.35
2022-12-08T18:28:17.685Z,16.35
2022-12-08T18:30:44.282Z,15.55
2022-12-08T18:33:11.189Z,15.27
2022-12-08T18:35:39.414Z,16.50
2022-12-08T18:38:05.946Z,17.00
2022-12-08T18:40:32.468Z,16.55
2022-12-08T18:42:59.204Z,16.52
2022-12-08T18:45:25.675Z,15.80
2022-12-08T18:47:52.368Z,15.63
2022-12-08T18:50:19.117Z,15.90
2022-12-08T18:52:46.956Z,15.15
2022-12-08T18:55:14.663Z,16.42
2022-12-08T18:57:43.201Z,15.30
2022-12-08T19:00:15.547Z,15.57
2022-12-08T19:02:43.463Z,15.30
2022-12-08T19:05:12.242Z,16.02
2022-12-08T19:07:39.528Z,14.85
2022-12-08T19:10:07.517Z,14.18
2022-12-08T19:12:36.892Z,14.93
2022-12-08T19:15:10.433Z,15.90
2022-12-08T19:17:54.088Z,16.08
2022-12-08T19:20:21.816Z,15.82
2022-12-08T19:22:48.337Z,14.82
2022-12-08T19:25:14.909Z,15.68
2022-12-08T19:27:41.847Z,15.93
2022-12-08T19:30:10.794Z,15.48
2022-12-08T19:32:37.371Z,15.48
2022-12-08T19:35:07.274Z,15.63
2022-12-08T19:37:35.189Z,15.40
2022-12-08T19:40:20.622Z,15.18
2022-12-08T19:43:05.403Z,15.07
2022-12-08T19:45:35.154Z,14.25
2022-12-08T19:48:01.837Z,14.18
2022-12-08T19:50:37.675Z,14.77
2022-12-08T19:53:13.352Z,14.00
2022-12-08T19:55:40.598Z,14.10
2022-12-08T19:58:08.023Z,14.77
2022-12-08T20:00:35.884Z,14.55
2022-12-08T20:03:03.831Z,14.98
2022-12-08T20:05:31.980Z,14.45
2022-12-08T20:07:58.570Z,14.18
2022-12-08T20:10:36.575Z,14.45
2022-12-08T20:13:23.289Z,14.50
2022-12-08T20:15:50.390Z,15.85
2022-12-08T20:18:17.964Z,15.90
2022-12-08T20:20:46.253Z,14.98
2022-12-08T20:23:13.904Z,16.02
2022-12-08T20:25:42.810Z,15.63
2022-12-08T20:28:09.995Z,16.08
2022-12-08T20:30:41.371Z,16.73
2022-12-08T20:33:07.976Z,16.42
2022-12-08T20:35:34.798Z,17.50
2022-12-08T20:38:01.385Z,16.67
2022-12-08T20:40:28.102Z,16.75
2022-12-08T20:42:54.660Z,17.35
2022-12-08T20:45:21.310Z,18.85
2022-12-08T20:47:47.941Z,19.02
2022-12-08T20:50:14.716Z,21.20
2022-12-08T20:52:41.264Z,20.33
2022-12-08T20:55:08.570Z,20.30
2022-12-08T20:57:35.265Z,20.73
2022-12-08T21:00:02.042Z,20.50
2022-12-08T21:02:28.874Z,20.98
2022-12-08T21:04:55.972Z,22.05
2022-12-08T21:07:22.537Z,20.85
2022-12-08T21:09:49.161Z,19.13
2022-12-08T21:12:15.902Z,19.52
2022-12-08T21:14:42.700Z,19.80
2022-12-08T21:17:09.401Z,20.02
2022-12-08T21:19:36.874Z,19.17
2022-12-08T21:22:03.812Z,19.45
2022-12-08T21:24:33.985Z,20.02
2022-12-08T21:27:01.534Z,18.80
2022-12-08T21:29:28.076Z,18.40
2022-12-08T21:31:57.321Z,17.35
2022-12-08T21:34:25.177Z,18.83
2022-12-08T21:36:52.865Z,18.23
2022-12-08T21:39:20.756Z,17.48
2022-12-08T21:42:07.373Z,16.67
2022-12-08T21:44:38.459Z,16.15
2022-12-08T21:47:08.515Z,17.13
2022-12-08T21:49:37.386Z,16.17
2022-12-08T21:52:07.269Z,17.20
2022-12-08T21:54:38.447Z,16.63
2022-12-08T21:57:08.068Z,17.15
2022-12-08T21:59:38.431Z,17.42
2022-12-08T22:02:11.280Z,16.55
2022-12-08T22:04:43.677Z,18.10
2022-12-08T22:07:13.780Z,17.40
2022-12-08T22:09:43.839Z,17.92
2022-12-08T22:12:13.916Z,17.08
2022-12-08T22:14:45.061Z,17.38
2022-12-08T22:17:15.566Z,17.50
2022-12-08T22:19:45.985Z,17.30
2022-12-08T22:22:16.572Z,17.33
2022-12-08T22:24:47.138Z,16.52
2022-12-08T22:27:17.354Z,16.10
2022-12-08T22:29:49.455Z,16.75
2022-12-08T22:32:18.864Z,16.85
2022-12-08T22:34:49.913Z,15.75
2022-12-08T22:37:18.757Z,15.27
2022-12-08T22:39:49.517Z,15.27
2022-12-08T22:42:21.117Z,15.43
2022-12-08T22:44:48.833Z,14.13
2022-12-08T22:47:15.525Z,14.73
2022-12-08T22:49:42.224Z,14.00
2022-12-08T22:52:09.088Z,14.63
2022-12-08T22:54:35.837Z,14.05
2022-12-08T22:57:02.384Z,13.98
2022-12-08T22:59:29.393Z,14.07
2022-12-08T23:01:55.985Z,13.18
2022-12-08T23:04:22.607Z,12.93
2022-12-08T23:06:49.329Z,13.05
2022-12-08T23:09:16.033Z,14.02
2022-12-08T23:11:44.183Z,13.73
2022-12-08T23:14:11.244Z,13.23
2022-12-08T23:16:38.262Z,13.60
2022-12-08T23:19:05.015Z,13.30
2022-12-08T23:21:31.769Z,12.98
2022-12-08T23:24:00.920Z,13.75
2022-12-08T23:26:30.401Z,13.05
2022-12-08T23:28:57.333Z,13.85
2022-12-08T23:31:25.642Z,13.50
2022-12-08T23:33:53.362Z,13.77
2022-12-08T23:36:21.985Z,12.82
2022-12-08T23:38:49.231Z,13.93
2022-12-08T23:41:16.596Z,12.63
2022-12-08T23:43:48.830Z,13.90
2022-12-08T23:46:17.248Z,13.77
2022-12-08T23:48:44.654Z,13.93
2022-12-08T23:51:11.658Z,13.73
2022-12-08T23:53:39.032Z,14.50
2022-12-08T23:56:08.223Z,14.32
2022-12-08T23:58:35.613Z,13.63
